createdAt,value
2019-03-23T00:02:04.412Z,26.80
2019-03-23T00:04:33.562Z,24.23
2019-03-23T00:07:03.680Z,27.05
2019-03-23T00:09:33.282Z,25.88
2019-03-23T00:12:06.180Z,24.52
2019-03-23T00:14:35.288Z,28.60
2019-03-23T00:17:06.410Z,29.40
2019-03-23T00:19:35.516Z,30.27
2019-03-23T00:22:04.737Z,30.10
2019-03-23T00:24:33.981Z,27.22
2019-03-23T00:27:03.114Z,26.12
2019-03-23T00:29:32.910Z,27.30
2019-03-23T00:32:02.030Z,29.67
2019-03-23T00:34:31.253Z,28.70
2019-03-23T00:37:00.429Z,24.70
2019-03-23T00:39:29.531Z,29.05
2019-03-23T00:42:02.775Z,27.55
2019-03-23T00:44:31.896Z,28.77
2019-03-23T00:47:01.020Z,31.65
2019-03-23T00:49:30.125Z,29.57
2019-03-23T00:51:59.240Z,29.85
2019-03-23T00:54:28.488Z,28.67
2019-03-23T00:56:57.646Z,29.52
2019-03-23T00:59:26.779Z,27.93
2019-03-23T01:01:56.608Z,29.45
2019-03-23T01:04:25.726Z,24.95
2019-03-23T01:06:55.523Z,26.50
2019-03-23T01:09:24.642Z,28.50
2019-03-23T01:11:54.152Z,30.48
2019-03-23T01:14:23.566Z,32.85
2019-03-23T01:16:53.145Z,34.35
2019-03-23T01:19:24.381Z,32.00
2019-03-23T01:21:53.544Z,31.30
2019-03-23T01:24:26.497Z,33.35
2019-03-23T01:26:55.645Z,32.33
2019-03-23T01:29:25.157Z,32.90
2019-03-23T01:31:54.315Z,32.15
2019-03-23T01:34:23.453Z,24.45
2019-03-23T01:37:02.301Z,26.15
2019-03-23T01:39:24.086Z,28.23
2019-03-23T01:41:56.573Z,27.37
2019-03-23T01:44:26.002Z,27.48
2019-03-23T01:46:55.891Z,27.27
2019-03-23T01:49:25.785Z,25.72
2019-03-23T01:51:57.813Z,27.55
2019-03-23T01:54:27.192Z,29.23
2019-03-23T01:56:56.377Z,25.08
2019-03-23T01:59:27.952Z,29.42
2019-03-23T02:01:57.756Z,31.48
2019-03-23T02:04:27.214Z,33.40
2019-03-23T02:06:56.364Z,36.10
2019-03-23T02:09:25.488Z,34.25
2019-03-23T02:11:54.645Z,33.50
2019-03-23T02:14:24.442Z,31.27
2019-03-23T02:16:53.966Z,30.70
2019-03-23T02:19:26.467Z,30.12
2019-03-23T02:21:55.942Z,30.00
2019-03-23T02:24:25.588Z,30.80
2019-03-23T02:26:57.718Z,32.30
2019-03-23T02:29:26.815Z,32.55
2019-03-23T02:31:55.926Z,34.75
2019-03-23T02:34:28.168Z,32.63
2019-03-23T02:36:57.282Z,36.33
2019-03-23T02:39:28.525Z,35.58
2019-03-23T02:41:58.676Z,33.42
2019-03-23T02:44:28.149Z,33.92
2019-03-23T02:46:57.306Z,35.83
2019-03-23T02:49:26.767Z,34.50
2019-03-23T02:51:56.180Z,35.95
2019-03-23T02:54:25.393Z,37.98
2019-03-23T02:56:54.475Z,33.33
2019-03-23T02:59:23.590Z,34.58
2019-03-23T03:01:53.723Z,31.33
2019-03-23T03:04:23.408Z,30.20
2019-03-23T03:06:54.248Z,33.18
2019-03-23T03:09:23.322Z,35.88
2019-03-23T03:11:52.434Z,35.17
2019-03-23T03:14:23.711Z,34.67
2019-03-23T03:16:56.482Z,32.85
2019-03-23T03:19:30.887Z,33.40
2019-03-23T03:21:59.996Z,33.58
2019-03-23T03:24:29.158Z,30.25
2019-03-23T03:26:59.266Z,30.75
2019-03-23T03:29:28.704Z,32.17
2019-03-23T03:31:58.597Z,29.98
2019-03-23T03:34:31.417Z,35.65
2019-03-23T03:37:03.336Z,36.30
2019-03-23T03:39:32.473Z,40.40
2019-03-23T03:42:04.913Z,37.83
2019-03-23T03:44:34.459Z,40.88
2019-03-23T03:47:03.591Z,40.85
2019-03-23T03:49:32.671Z,36.15
2019-03-23T03:52:01.812Z,34.60
2019-03-23T03:54:31.648Z,36.70
2019-03-23T03:57:01.236Z,30.43
2019-03-23T03:59:30.396Z,28.30
2019-03-23T04:01:59.919Z,33.18
2019-03-23T04:04:30.332Z,30.02
2019-03-23T04:06:59.861Z,34.27
2019-03-23T04:09:32.120Z,39.95
2019-03-23T04:12:01.529Z,38.63
2019-03-23T04:14:30.636Z,43.33
2019-03-23T04:16:59.750Z,42.75
2019-03-23T04:19:28.861Z,40.40
2019-03-23T04:21:58.365Z,42.05
2019-03-23T04:24:27.493Z,43.68
2019-03-23T04:26:56.623Z,36.88
2019-03-23T04:29:26.109Z,36.93
2019-03-23T04:31:55.225Z,38.92
2019-03-23T04:34:24.352Z,34.55
2019-03-23T04:36:53.487Z,38.02
2019-03-23T04:39:23.354Z,34.78
2019-03-23T04:41:58.174Z,33.42
2019-03-23T04:44:28.298Z,36.80
2019-03-23T04:46:57.461Z,32.88
2019-03-23T04:49:26.581Z,30.77
2019-03-23T04:51:56.866Z,31.75
2019-03-23T04:54:26.030Z,29.18
2019-03-23T04:56:55.913Z,29.57
2019-03-23T04:59:25.803Z,30.35
2019-03-23T05:01:58.235Z,29.52
2019-03-23T05:04:27.597Z,27.85
2019-03-23T05:06:57.130Z,31.40
2019-03-23T05:09:26.319Z,29.05
2019-03-23T05:11:58.482Z,28.35
2019-03-23T05:14:29.435Z,26.02
2019-03-23T05:16:58.823Z,30.32
2019-03-23T05:19:27.979Z,30.25
2019-03-23T05:21:57.460Z,33.80
2019-03-23T05:24:27.205Z,28.25
2019-03-23T05:26:56.306Z,27.60
2019-03-23T05:29:25.452Z,31.50
2019-03-23T05:31:54.942Z,31.05
2019-03-23T05:34:24.497Z,30.75
2019-03-23T05:36:53.602Z,33.45
2019-03-23T05:39:22.742Z,29.48
2019-03-23T05:41:53.256Z,31.02
2019-03-23T05:44:23.400Z,31.30
2019-03-23T05:46:54.328Z,32.30
2019-03-23T05:49:23.642Z,31.87
2019-03-23T05:51:56.458Z,34.27
2019-03-23T05:54:26.082Z,31.05
2019-03-23T05:56:58.311Z,28.75
2019-03-23T05:59:27.749Z,30.00
2019-03-23T06:01:56.857Z,27.87
2019-03-23T06:04:25.987Z,28.12
2019-03-23T06:06:55.541Z,35.65
2019-03-23T06:09:28.219Z,34.60
2019-03-23T06:11:57.298Z,32.00
2019-03-23T06:14:26.756Z,31.45
2019-03-23T06:16:55.860Z,32.15
2019-03-23T06:19:25.402Z,34.48
2019-03-23T06:21:55.283Z,29.72
2019-03-23T06:24:25.151Z,25.85
2019-03-23T06:26:54.270Z,27.48
2019-03-23T06:29:28.662Z,28.95
2019-03-23T06:31:57.784Z,28.57
2019-03-23T06:34:26.968Z,28.30
2019-03-23T06:36:56.071Z,26.20
2019-03-23T06:39:25.225Z,27.10
2019-03-23T06:41:54.340Z,27.22
2019-03-23T06:44:23.528Z,27.62
2019-03-23T06:46:52.652Z,26.75
2019-03-23T06:49:22.244Z,25.15
2019-03-23T06:51:52.047Z,26.60
2019-03-23T06:54:21.263Z,27.58
2019-03-23T06:56:50.727Z,28.23
2019-03-23T06:59:19.899Z,28.25
2019-03-23T07:01:49.331Z,24.40
2019-03-23T07:04:21.638Z,24.98
2019-03-23T07:06:50.770Z,24.85
2019-03-23T07:09:20.621Z,25.70
2019-03-23T07:11:50.428Z,27.15
2019-03-23T07:14:19.856Z,28.27
2019-03-23T07:16:48.967Z,30.25
2019-03-23T07:19:18.751Z,31.95
2019-03-23T07:21:47.839Z,33.05
2019-03-23T07:24:19.403Z,32.38
2019-03-23T07:26:48.495Z,36.90
2019-03-23T07:29:17.605Z,40.55
2019-03-23T07:31:46.706Z,41.00
2019-03-23T07:34:18.317Z,42.75
2019-03-23T07:36:47.412Z,45.28
2019-03-23T07:39:26.653Z,51.48
2019-03-23T07:41:51.179Z,60.23
2019-03-23T07:44:20.328Z,60.20
2019-03-23T07:46:49.599Z,60.52
2019-03-23T07:49:19.031Z,64.45
2019-03-23T07:51:48.820Z,64.95
2019-03-23T07:54:17.993Z,68.30
2019-03-23T07:56:47.100Z,70.42
2019-03-23T07:59:16.237Z,66.02
2019-03-23T08:01:48.102Z,68.20
2019-03-23T08:04:17.229Z,70.28
2019-03-23T08:06:46.334Z,65.95
2019-03-23T08:09:20.499Z,65.17
2019-03-23T08:11:49.821Z,66.20
2019-03-23T08:14:18.912Z,62.25
2019-03-23T08:16:48.033Z,60.08
2019-03-23T08:19:17.765Z,61.10
2019-03-23T08:21:48.121Z,60.85
2019-03-23T08:24:17.235Z,61.58
2019-03-23T08:26:46.686Z,62.65
2019-03-23T08:29:15.894Z,63.08
2019-03-23T08:31:44.999Z,58.25
2019-03-23T08:34:14.518Z,58.65
2019-03-23T08:36:46.835Z,59.42
2019-03-23T08:39:15.954Z,56.98
2019-03-23T08:41:45.038Z,58.30
2019-03-23T08:44:14.157Z,56.90
2019-03-23T08:46:47.012Z,57.65
2019-03-23T08:49:16.114Z,58.03
2019-03-23T08:51:45.249Z,55.80
2019-03-23T08:54:14.554Z,55.88
2019-03-23T08:56:43.651Z,51.02
2019-03-23T08:59:12.769Z,53.23
2019-03-23T09:01:41.885Z,56.18
2019-03-23T09:04:16.540Z,52.15
2019-03-23T09:06:45.641Z,52.27
2019-03-23T09:09:14.765Z,52.88
2019-03-23T09:11:43.892Z,54.85
2019-03-23T09:14:13.330Z,58.60
2019-03-23T09:16:42.732Z,59.85
2019-03-23T09:19:11.825Z,58.25
2019-03-23T09:21:41.284Z,55.25
2019-03-23T09:24:15.149Z,57.50
2019-03-23T09:26:44.272Z,57.58
2019-03-23T09:29:13.668Z,58.58
2019-03-23T09:31:52.267Z,56.73
2019-03-23T09:34:22.365Z,57.45
2019-03-23T09:36:52.174Z,58.65
2019-03-23T09:39:21.291Z,58.50
2019-03-23T09:41:53.833Z,60.03
2019-03-23T09:44:24.079Z,57.27
2019-03-23T09:46:53.219Z,60.03
2019-03-23T09:49:27.931Z,57.43
2019-03-23T09:51:57.636Z,58.55
2019-03-23T09:54:26.752Z,57.95
2019-03-23T09:56:56.854Z,57.93
2019-03-23T09:59:26.338Z,56.65
2019-03-23T10:01:55.455Z,57.10
2019-03-23T10:04:24.955Z,57.95
2019-03-23T10:06:54.983Z,56.98
2019-03-23T10:09:33.661Z,58.45
2019-03-23T10:12:02.810Z,59.75
2019-03-23T10:14:34.861Z,58.85
2019-03-23T10:17:03.968Z,56.75
2019-03-23T10:19:33.075Z,57.95
2019-03-23T10:22:03.114Z,57.15
2019-03-23T10:24:32.219Z,57.10
2019-03-23T10:27:02.616Z,57.33
2019-03-23T10:29:31.709Z,57.95
2019-03-23T10:32:00.820Z,57.53
2019-03-23T10:34:32.285Z,59.55
2019-03-23T10:37:01.989Z,56.77
2019-03-23T10:39:31.098Z,54.00
2019-03-23T10:42:00.485Z,53.98
2019-03-23T10:44:29.615Z,52.20
2019-03-23T10:46:58.738Z,55.83
2019-03-23T10:49:30.537Z,57.80
2019-03-23T10:52:00.031Z,54.33
2019-03-23T10:54:29.526Z,56.20
2019-03-23T10:56:58.946Z,55.33
2019-03-23T10:59:28.148Z,56.65
2019-03-23T11:01:57.817Z,58.05
2019-03-23T11:04:27.538Z,57.50
2019-03-23T11:07:00.051Z,56.25
2019-03-23T11:09:29.517Z,55.83
2019-03-23T11:11:58.643Z,57.95
2019-03-23T11:14:30.779Z,55.90
2019-03-23T11:17:00.928Z,60.45
2019-03-23T11:19:33.173Z,55.70
2019-03-23T11:22:02.706Z,56.10
2019-03-23T11:24:35.118Z,55.25
2019-03-23T11:27:08.144Z,56.35
2019-03-23T11:29:37.256Z,55.20
2019-03-23T11:32:09.671Z,55.05
2019-03-23T11:34:46.742Z,51.48
2019-03-23T11:37:15.927Z,52.05
2019-03-23T11:39:45.213Z,54.05
2019-03-23T11:42:16.835Z,52.67
2019-03-23T11:44:46.376Z,50.95
2019-03-23T11:47:15.597Z,48.95
2019-03-23T11:49:46.186Z,51.88
2019-03-23T11:52:16.726Z,50.35
2019-03-23T11:54:48.897Z,51.58
2019-03-23T11:57:18.025Z,47.85
2019-03-23T11:59:47.108Z,51.33
2019-03-23T12:02:19.521Z,50.48
2019-03-23T12:04:48.623Z,48.55
2019-03-23T12:07:17.774Z,46.58
2019-03-23T12:09:49.597Z,48.83
2019-03-23T12:12:18.702Z,51.20
2019-03-23T12:14:51.498Z,50.63
2019-03-23T12:17:21.011Z,48.83
2019-03-23T12:19:50.888Z,48.58
2019-03-23T12:22:20.017Z,46.83
2019-03-23T12:24:49.835Z,45.90
2019-03-23T12:27:18.933Z,47.20
2019-03-23T12:29:51.404Z,47.08
2019-03-23T12:32:20.951Z,46.63
2019-03-23T12:34:50.982Z,48.00
2019-03-23T12:37:22.957Z,47.23
2019-03-23T12:39:52.087Z,48.20
2019-03-23T12:42:21.198Z,46.08
2019-03-23T12:44:50.278Z,46.48
2019-03-23T12:47:19.460Z,45.92
2019-03-23T12:49:48.564Z,46.83
2019-03-23T12:52:18.269Z,44.45
2019-03-23T12:54:47.774Z,46.68
2019-03-23T12:57:17.248Z,46.70
2019-03-23T12:59:46.391Z,44.23
2019-03-23T13:02:17.132Z,43.50
2019-03-23T13:04:46.946Z,43.48
2019-03-23T13:07:16.052Z,40.90
2019-03-23T13:09:45.154Z,44.58
2019-03-23T13:12:14.675Z,43.90
2019-03-23T13:14:44.155Z,40.78
2019-03-23T13:17:13.267Z,41.48
2019-03-23T13:19:42.355Z,40.05
2019-03-23T13:22:12.175Z,39.60
2019-03-23T13:24:41.948Z,41.70
2019-03-23T13:27:15.114Z,38.90
2019-03-23T13:29:44.763Z,41.75
2019-03-23T13:32:13.886Z,41.55
2019-03-23T13:34:43.046Z,39.80
2019-03-23T13:37:12.657Z,39.27
2019-03-23T13:39:42.329Z,40.43
2019-03-23T13:42:11.425Z,37.95
2019-03-23T13:44:44.584Z,40.70
2019-03-23T13:47:13.691Z,40.90
2019-03-23T13:49:43.423Z,38.25
2019-03-23T13:52:12.528Z,37.78
2019-03-23T13:54:43.275Z,36.80
2019-03-23T13:57:12.364Z,37.25
2019-03-23T13:59:42.143Z,37.30
2019-03-23T14:02:11.943Z,37.48
2019-03-23T14:04:41.140Z,38.83
2019-03-23T14:07:10.929Z,40.38
2019-03-23T14:09:40.131Z,39.83
2019-03-23T14:12:09.322Z,37.03
2019-03-23T14:14:38.455Z,38.85
2019-03-23T14:17:07.572Z,39.10
2019-03-23T14:19:40.491Z,36.05
2019-03-23T14:22:09.629Z,36.25
2019-03-23T14:24:38.831Z,38.08
2019-03-23T14:27:07.946Z,37.63
2019-03-23T14:29:37.064Z,39.55
2019-03-23T14:32:08.168Z,37.17
2019-03-23T14:34:37.302Z,37.85
2019-03-23T14:37:06.386Z,37.53
2019-03-23T14:39:35.623Z,37.73
2019-03-23T14:42:07.951Z,37.40
2019-03-23T14:44:37.083Z,38.92
2019-03-23T14:47:06.170Z,38.23
2019-03-23T14:49:35.316Z,37.35
2019-03-23T14:52:04.416Z,38.78
2019-03-23T14:54:33.525Z,38.35
2019-03-23T14:57:02.689Z,37.33
2019-03-23T14:59:31.795Z,37.75
2019-03-23T15:02:02.198Z,37.45
2019-03-23T15:04:31.316Z,39.83
2019-03-23T15:07:00.450Z,39.08
2019-03-23T15:09:29.585Z,38.90
2019-03-23T15:12:00.285Z,39.50
2019-03-23T15:14:29.424Z,38.48
2019-03-23T15:16:58.520Z,38.88
2019-03-23T15:19:27.653Z,38.98
2019-03-23T15:21:56.758Z,40.05
2019-03-23T15:24:25.903Z,38.28
2019-03-23T15:26:55.056Z,40.52
2019-03-23T15:29:24.205Z,38.92
2019-03-23T15:31:53.617Z,38.48
2019-03-23T15:34:22.751Z,40.33
2019-03-23T15:36:51.839Z,41.85
2019-03-23T15:39:20.956Z,41.13
2019-03-23T15:41:53.307Z,40.98
2019-03-23T15:44:22.494Z,42.00
2019-03-23T15:46:51.882Z,40.10
2019-03-23T15:49:23.882Z,41.48
2019-03-23T15:51:52.996Z,41.68
2019-03-23T15:54:22.256Z,39.85
2019-03-23T15:56:51.366Z,40.65
2019-03-23T15:59:27.005Z,39.80
2019-03-23T16:01:56.093Z,40.70
2019-03-23T16:04:25.622Z,41.05
2019-03-23T16:06:56.740Z,41.98
2019-03-23T16:09:25.578Z,43.58
2019-03-23T16:11:54.915Z,40.78
2019-03-23T16:14:24.018Z,43.35
2019-03-23T16:16:53.181Z,42.38
2019-03-23T16:19:25.381Z,41.60
2019-03-23T16:21:56.090Z,39.63
2019-03-23T16:24:25.242Z,41.83
2019-03-23T16:26:54.642Z,42.67
2019-03-23T16:29:23.754Z,43.85
2019-03-23T16:31:52.891Z,40.00
2019-03-23T16:34:21.990Z,44.38
2019-03-23T16:36:51.145Z,42.10
2019-03-23T16:39:20.197Z,43.28
2019-03-23T16:41:49.389Z,40.83
2019-03-23T16:44:19.363Z,45.75
2019-03-23T16:46:48.503Z,45.48
2019-03-23T16:49:17.644Z,42.75
2019-03-23T16:51:46.792Z,43.52
2019-03-23T16:54:15.899Z,44.70
2019-03-23T16:56:45.045Z,45.52
2019-03-23T16:59:14.183Z,45.40
2019-03-23T17:01:43.363Z,46.35
2019-03-23T17:04:13.448Z,47.35
2019-03-23T17:06:46.686Z,45.23
2019-03-23T17:09:13.669Z,44.65
2019-03-23T17:11:42.790Z,45.10
2019-03-23T17:14:11.897Z,46.05
2019-03-23T17:16:45.964Z,43.68
2019-03-23T17:19:15.046Z,45.52
2019-03-23T17:21:44.164Z,46.23
2019-03-23T17:24:14.072Z,47.45
2019-03-23T17:26:45.156Z,48.63
2019-03-23T17:29:14.018Z,50.28
2019-03-23T17:31:43.143Z,52.38
2019-03-23T17:34:15.386Z,45.88
2019-03-23T17:36:45.631Z,46.58
2019-03-23T17:39:14.792Z,43.63
2019-03-23T17:41:43.936Z,44.63
2019-03-23T17:44:13.016Z,43.92
2019-03-23T17:46:42.128Z,41.23
2019-03-23T17:49:11.721Z,45.83
2019-03-23T17:51:40.853Z,46.13
2019-03-23T17:54:09.945Z,43.20
2019-03-23T17:56:39.053Z,45.67
2019-03-23T17:59:08.503Z,45.78
2019-03-23T18:01:37.955Z,47.43
2019-03-23T18:04:07.053Z,47.33
2019-03-23T18:06:36.161Z,51.13
2019-03-23T18:09:05.699Z,48.35
2019-03-23T18:11:35.901Z,46.65
2019-03-23T18:14:05.370Z,46.95
2019-03-23T18:16:34.477Z,47.93
2019-03-23T18:19:03.582Z,46.80
2019-03-23T18:21:32.701Z,44.83
2019-03-23T18:24:01.798Z,48.73
2019-03-23T18:26:30.910Z,45.10
2019-03-23T18:29:00.004Z,48.45
2019-03-23T18:31:29.145Z,48.73
2019-03-23T18:33:58.394Z,49.27
2019-03-23T18:36:27.516Z,48.55
2019-03-23T18:38:56.612Z,51.98
2019-03-23T18:41:25.992Z,49.65
2019-03-23T18:43:55.236Z,48.73
2019-03-23T18:46:24.755Z,51.40
2019-03-23T18:48:53.857Z,50.85
2019-03-23T18:51:23.289Z,52.33
2019-03-23T18:53:52.401Z,51.10
2019-03-23T18:56:21.530Z,50.80
2019-03-23T18:58:50.640Z,48.70
2019-03-23T19:01:19.774Z,49.65
2019-03-23T19:03:48.953Z,49.42
2019-03-23T19:06:18.104Z,47.62
2019-03-23T19:08:51.256Z,47.50
2019-03-23T19:11:20.360Z,45.75
2019-03-23T19:13:49.466Z,45.38
2019-03-23T19:16:18.624Z,42.30
2019-03-23T19:18:49.257Z,42.98
2019-03-23T19:21:18.494Z,39.40
2019-03-23T19:23:51.434Z,39.42
2019-03-23T19:26:20.542Z,39.90
2019-03-23T19:28:49.668Z,36.88
2019-03-23T19:31:18.764Z,38.75
2019-03-23T19:33:48.692Z,36.88
2019-03-23T19:36:17.797Z,36.45
2019-03-23T19:38:46.897Z,36.83
2019-03-23T19:41:16.417Z,36.58
2019-03-23T19:43:49.671Z,36.68
2019-03-23T19:46:16.366Z,35.28
2019-03-23T19:48:45.491Z,36.73
2019-03-23T19:51:14.571Z,37.90
2019-03-23T19:53:44.063Z,34.95
2019-03-23T19:56:13.155Z,37.28
2019-03-23T19:58:42.323Z,41.70
2019-03-23T20:01:11.386Z,38.75
2019-03-23T20:03:40.488Z,40.10
2019-03-23T20:06:09.577Z,38.85
2019-03-23T20:08:38.711Z,35.28
2019-03-23T20:11:07.842Z,30.25
2019-03-23T20:13:36.965Z,24.05
2019-03-23T20:16:06.059Z,22.55
2019-03-23T20:18:35.180Z,21.77
2019-03-23T20:21:04.288Z,21.93
2019-03-23T20:23:33.405Z,24.65
2019-03-23T20:26:02.494Z,22.35
2019-03-23T20:28:35.045Z,22.55
2019-03-23T20:31:04.149Z,24.30
2019-03-23T20:33:33.265Z,24.43
2019-03-23T20:36:02.341Z,26.23
2019-03-23T20:38:31.440Z,22.62
2019-03-23T20:41:00.606Z,29.40
2019-03-23T20:43:30.178Z,29.95
2019-03-23T20:46:02.078Z,32.05
2019-03-23T20:48:31.197Z,34.67
2019-03-23T20:51:02.886Z,32.83
2019-03-23T20:53:32.006Z,31.15
2019-03-23T20:56:03.141Z,30.68
2019-03-23T20:58:32.295Z,29.23
2019-03-23T21:01:01.404Z,27.52
2019-03-23T21:03:30.525Z,25.43
2019-03-23T21:05:59.589Z,24.77
2019-03-23T21:08:29.025Z,22.37
2019-03-23T21:10:58.088Z,19.52
2019-03-23T21:13:27.532Z,20.27
2019-03-23T21:15:56.630Z,20.43
2019-03-23T21:18:25.804Z,20.02
2019-03-23T21:20:54.901Z,19.55
2019-03-23T21:23:24.664Z,18.30
2019-03-23T21:25:53.792Z,16.27
2019-03-23T21:28:23.266Z,17.70
2019-03-23T21:30:53.041Z,16.87
2019-03-23T21:33:22.178Z,17.70
2019-03-23T21:35:51.259Z,17.32
2019-03-23T21:38:20.369Z,16.23
2019-03-23T21:40:49.636Z,14.33
2019-03-23T21:43:18.697Z,14.98
2019-03-23T21:45:47.859Z,13.35
2019-03-23T21:48:16.975Z,12.75
2019-03-23T21:50:47.679Z,11.22
2019-03-23T21:53:16.964Z,11.50
2019-03-23T21:55:46.053Z,10.82
2019-03-23T21:58:15.181Z,10.30
2019-03-23T22:00:44.658Z,8.45
2019-03-23T22:03:16.131Z,8.68
2019-03-23T22:05:45.703Z,8.88
2019-03-23T22:08:15.532Z,8.55
2019-03-23T22:10:44.617Z,8.30
2019-03-23T22:13:17.216Z,8.53
2019-03-23T22:15:46.339Z,8.18
2019-03-23T22:18:15.641Z,7.83
2019-03-23T22:20:44.741Z,7.45
2019-03-23T22:23:13.855Z,7.95
2019-03-23T22:25:42.966Z,6.50
2019-03-23T22:28:12.105Z,6.92
2019-03-23T22:30:41.195Z,6.72
2019-03-23T22:33:10.953Z,7.10
2019-03-23T22:35:40.838Z,7.40
2019-03-23T22:38:10.215Z,7.25
2019-03-23T22:40:39.311Z,7.03
2019-03-23T22:43:08.424Z,7.50
2019-03-23T22:45:37.545Z,6.42
2019-03-23T22:48:06.634Z,5.97
2019-03-23T22:50:35.762Z,6.22
2019-03-23T22:53:05.304Z,6.42
2019-03-23T22:55:34.465Z,6.95
2019-03-23T22:58:03.575Z,7.03
2019-03-23T23:00:44.132Z,6.08
2019-03-23T23:03:13.683Z,7.37
2019-03-23T23:05:43.061Z,5.80
2019-03-23T23:08:12.873Z,6.33
2019-03-23T23:10:42.437Z,6.15
2019-03-23T23:13:11.534Z,5.92
2019-03-23T23:15:40.657Z,5.50
2019-03-23T23:18:09.743Z,6.78
2019-03-23T23:20:38.853Z,6.55
2019-03-23T23:23:08.378Z,5.53
2019-03-23T23:25:37.513Z,5.00
2019-03-23T23:28:06.619Z,6.10
2019-03-23T23:30:35.735Z,5.25
2019-03-23T23:33:04.865Z,6.15
2019-03-23T23:35:33.975Z,5.30
2019-03-23T23:38:03.377Z,5.85
2019-03-23T23:40:32.467Z,4.85
2019-03-23T23:43:01.564Z,5.55
2019-03-23T23:45:31.074Z,6.37
2019-03-23T23:48:00.232Z,6.08
2019-03-23T23:50:29.302Z,5.47
2019-03-23T23:53:00.254Z,5.92
2019-03-23T23:55:29.647Z,6.03
2019-03-23T23:57:58.851Z,6.35
